createdAt,value
2017-08-19T00:00:43.090Z,86.70
2017-08-19T00:03:11.976Z,86.60
2017-08-19T00:05:40.821Z,86.80
2017-08-19T00:08:09.655Z,86.80
2017-08-19T00:10:38.543Z,87.20
2017-08-19T00:13:07.435Z,87.30
2017-08-19T00:15:36.358Z,87.20
2017-08-19T00:18:05.217Z,87.40
2017-08-19T00:20:34.064Z,87.40
2017-08-19T00:23:02.941Z,87.30
2017-08-19T00:25:31.839Z,87.10
2017-08-19T00:28:00.726Z,87.10
2017-08-19T00:30:29.613Z,87.00
2017-08-19T00:32:58.509Z,86.60
2017-08-19T00:35:27.406Z,86.40
2017-08-19T00:37:56.302Z,86.30
2017-08-19T00:40:25.199Z,86.30
2017-08-19T00:42:54.096Z,86.30
2017-08-19T00:45:22.986Z,86.40
2017-08-19T00:47:51.877Z,86.60
2017-08-19T00:50:20.770Z,86.50
2017-08-19T00:52:49.341Z,86.50
2017-08-19T00:55:18.221Z,86.50
2017-08-19T00:57:47.123Z,86.20
2017-08-19T01:00:15.991Z,86.10
2017-08-19T01:02:44.528Z,86.20
2017-08-19T01:05:13.829Z,86.20
2017-08-19T01:07:42.012Z,86.20
2017-08-19T01:10:10.875Z,86.00
2017-08-19T01:12:39.757Z,85.80
2017-08-19T01:15:08.650Z,85.70
2017-08-19T01:17:37.520Z,85.80
2017-08-19T01:20:05.720Z,85.80
2017-08-19T01:22:34.619Z,85.60
2017-08-19T01:25:14.632Z,85.60
2017-08-19T01:27:43.529Z,85.40
2017-08-19T01:30:13.383Z,85.20
2017-08-19T01:32:43.036Z,85.10
2017-08-19T01:35:11.882Z,84.80
2017-08-19T01:37:40.769Z,84.60
2017-08-19T01:40:09.675Z,84.30
2017-08-19T01:42:38.570Z,84.30
2017-08-19T01:45:07.470Z,84.20
2017-08-19T01:47:36.363Z,83.90
2017-08-19T01:50:05.218Z,83.80
2017-08-19T01:52:34.105Z,83.80
2017-08-19T01:55:02.960Z,83.60
2017-08-19T01:57:31.811Z,83.60
2017-08-19T02:00:00.693Z,83.60
2017-08-19T02:02:29.618Z,84.30
2017-08-19T02:04:58.521Z,83.40
2017-08-19T02:07:27.402Z,83.50
2017-08-19T02:09:56.294Z,83.60
2017-08-19T02:12:25.192Z,83.30
2017-08-19T02:14:54.080Z,83.20
2017-08-19T02:17:22.982Z,83.00
2017-08-19T02:19:51.865Z,83.10
2017-08-19T02:22:20.748Z,83.20
2017-08-19T02:24:49.450Z,83.30
2017-08-19T02:27:18.324Z,83.20
2017-08-19T02:29:47.177Z,83.40
2017-08-19T02:32:16.072Z,83.20
2017-08-19T02:34:44.982Z,83.30
2017-08-19T02:37:13.868Z,83.30
2017-08-19T02:39:43.520Z,82.70
2017-08-19T02:42:12.405Z,82.80
2017-08-19T02:47:19.326Z,83.10
2017-08-19T02:49:49.096Z,83.00
2017-08-19T02:52:17.981Z,83.20
2017-08-19T02:54:46.886Z,83.10
2017-08-19T02:57:15.778Z,82.90
2017-08-19T02:59:44.639Z,82.90
2017-08-19T03:02:13.494Z,83.00
2017-08-19T03:04:42.386Z,83.20
2017-08-19T03:07:11.282Z,83.10
2017-08-19T03:09:40.157Z,83.30
2017-08-19T03:12:09.048Z,83.80
2017-08-19T03:14:37.922Z,83.50
2017-08-19T03:17:06.800Z,83.50
2017-08-19T03:19:35.678Z,83.20
2017-08-19T03:22:05.342Z,83.10
2017-08-19T03:24:34.222Z,82.90
2017-08-19T03:27:03.105Z,83.30
2017-08-19T03:29:31.999Z,83.40
2017-08-19T03:32:00.890Z,83.70
2017-08-19T03:34:29.787Z,83.80
2017-08-19T03:36:58.684Z,84.00
2017-08-19T03:39:27.565Z,84.10
2017-08-19T03:41:56.449Z,84.00
2017-08-19T03:44:25.336Z,83.60
2017-08-19T03:46:54.238Z,83.30
2017-08-19T03:49:23.130Z,83.00
2017-08-19T03:51:52.024Z,82.80
2017-08-19T03:54:20.905Z,82.60
2017-08-19T03:56:49.793Z,82.40
2017-08-19T03:59:18.695Z,82.30
2017-08-19T04:01:47.572Z,82.30
2017-08-19T04:04:16.456Z,82.10
2017-08-19T04:06:45.367Z,82.10
2017-08-19T04:09:14.263Z,81.80
2017-08-19T04:11:43.258Z,81.90
2017-08-19T04:14:12.152Z,81.90
2017-08-19T04:16:41.039Z,81.80
2017-08-19T04:19:09.942Z,81.70
2017-08-19T04:21:38.803Z,81.60
2017-08-19T04:24:08.456Z,81.60
2017-08-19T04:26:37.336Z,81.50
2017-08-19T04:29:06.221Z,81.60
2017-08-19T04:31:35.110Z,81.70
2017-08-19T04:34:04.003Z,81.90
2017-08-19T04:36:32.894Z,81.90
2017-08-19T04:39:01.778Z,81.70
2017-08-19T04:41:30.311Z,82.00
2017-08-19T04:43:59.210Z,82.10
2017-08-19T04:46:28.106Z,82.10
2017-08-19T04:48:56.963Z,82.10
2017-08-19T04:51:25.813Z,82.00
2017-08-19T04:53:55.478Z,82.00
2017-08-19T04:56:24.373Z,82.00
2017-08-19T04:58:53.257Z,82.10
2017-08-19T05:01:22.151Z,82.20
2017-08-19T05:03:51.001Z,82.30
2017-08-19T05:06:19.850Z,82.20
2017-08-19T05:08:48.755Z,82.30
2017-08-19T05:11:17.641Z,82.20
2017-08-19T05:13:46.533Z,82.10
2017-08-19T05:16:15.425Z,81.90
2017-08-19T05:18:44.325Z,81.90
2017-08-19T05:21:13.183Z,81.60
2017-08-19T05:23:42.050Z,81.70
2017-08-19T05:26:10.946Z,81.40
2017-08-19T05:28:39.859Z,81.50
2017-08-19T05:31:08.752Z,81.40
2017-08-19T05:33:37.615Z,81.00
2017-08-19T05:36:06.493Z,80.80
2017-08-19T05:38:35.351Z,80.70
2017-08-19T05:41:04.247Z,80.60
2017-08-19T05:43:33.142Z,80.60
2017-08-19T05:46:02.028Z,80.40
2017-08-19T05:48:30.930Z,80.30
2017-08-19T05:50:59.829Z,79.90
2017-08-19T05:53:29.490Z,79.80
2017-08-19T05:55:58.374Z,79.80
2017-08-19T05:58:27.278Z,79.80
2017-08-19T06:00:56.141Z,79.40
2017-08-19T06:03:24.990Z,79.20
2017-08-19T06:05:53.838Z,79.10
2017-08-19T06:08:22.533Z,79.00
2017-08-19T06:10:53.621Z,78.60
2017-08-19T06:13:22.518Z,78.60
2017-08-19T06:15:52.244Z,78.40
2017-08-19T06:18:21.125Z,78.00
2017-08-19T06:20:50.025Z,77.80
2017-08-19T06:23:23.338Z,77.60
2017-08-19T06:25:52.243Z,77.60
2017-08-19T06:28:21.138Z,77.30
2017-08-19T06:30:50.033Z,77.00
2017-08-19T06:39:04.144Z,77.00
2017-08-19T06:41:33.028Z,77.10
2017-08-19T06:49:48.138Z,75.90
2017-08-19T06:52:17.019Z,75.60
2017-08-19T06:57:40.144Z,74.90
2017-08-19T07:00:09.597Z,75.00
2017-08-19T07:02:38.500Z,75.00
2017-08-19T07:28:09.095Z,74.20
2017-08-19T07:30:59.474Z,74.00
2017-08-19T07:33:28.176Z,73.80
2017-08-19T07:44:32.030Z,73.80
2017-08-19T07:49:56.242Z,74.00
2017-08-19T07:52:29.823Z,74.20
2017-08-19T16:34:58.247Z,37.80
2017-08-19T16:37:27.141Z,37.80
2017-08-19T16:39:56.027Z,38.00
2017-08-19T16:42:24.932Z,37.80
2017-08-19T16:44:53.828Z,37.80
2017-08-19T16:47:22.538Z,38.30
2017-08-19T16:49:51.437Z,38.50
2017-08-19T16:52:20.337Z,38.20
2017-08-19T16:54:49.224Z,38.20
2017-08-19T16:57:18.208Z,38.30
2017-08-19T16:59:48.589Z,38.10
2017-08-19T17:02:25.861Z,37.70
2017-08-19T17:04:59.158Z,37.70
2017-08-19T17:07:36.487Z,37.70
2017-08-19T17:13:08.809Z,37.70
2017-08-19T17:15:45.124Z,38.10
2017-08-19T17:21:13.390Z,38.50
2017-08-19T17:23:47.275Z,38.60
2017-08-19T17:26:18.075Z,38.90
2017-08-19T17:28:49.906Z,39.30
2017-08-19T17:31:18.817Z,39.50
2017-08-19T17:33:50.138Z,40.00
2017-08-19T17:36:19.027Z,40.00
2017-08-19T17:39:04.360Z,40.30
2017-08-19T17:41:35.114Z,40.50
2017-08-19T17:44:05.674Z,40.00
2017-08-19T17:46:34.618Z,39.90
2017-08-19T17:49:03.535Z,40.70
2017-08-19T17:51:32.442Z,40.70
2017-08-19T17:54:01.335Z,41.30
2017-08-19T17:56:30.594Z,41.60
2017-08-19T17:58:59.725Z,41.60
2017-08-19T18:01:28.621Z,41.10
2017-08-19T18:03:57.531Z,42.20
2017-08-19T18:06:29.796Z,42.80
2017-08-19T18:09:00.597Z,42.90
2017-08-19T18:11:29.491Z,43.00
2017-08-19T18:13:59.087Z,43.00
2017-08-19T18:16:27.962Z,42.90
2017-08-19T18:18:56.857Z,43.40
2017-08-19T18:21:25.750Z,43.70
2017-08-19T18:23:54.650Z,43.40
2017-08-19T18:26:23.540Z,43.40
2017-08-19T18:28:52.426Z,43.40
2017-08-19T18:31:21.326Z,43.90
2017-08-19T18:33:50.222Z,44.00
2017-08-19T18:36:19.114Z,44.00
2017-08-19T18:38:48.011Z,44.20
2017-08-19T18:41:16.915Z,45.10
2017-08-19T18:43:45.805Z,44.50
2017-08-19T18:46:14.808Z,44.70
2017-08-19T18:48:43.711Z,45.00
2017-08-19T18:51:12.606Z,45.50
2017-08-19T18:53:41.485Z,45.90
2017-08-19T18:56:10.411Z,46.40
2017-08-19T18:58:39.330Z,46.60
2017-08-19T19:01:08.218Z,46.80
2017-08-19T19:03:37.115Z,47.10
2017-08-19T19:06:06.356Z,47.50
2017-08-19T19:08:35.255Z,47.60
2017-08-19T19:11:04.134Z,47.50
2017-08-19T19:13:32.992Z,47.70
2017-08-19T19:16:01.934Z,47.70
2017-08-19T19:18:30.834Z,47.80
2017-08-19T19:21:04.173Z,47.90
2017-08-19T19:23:39.743Z,48.20
2017-08-19T19:29:07.898Z,48.60
2017-08-19T19:37:24.260Z,49.60
2017-08-19T19:39:53.155Z,50.20
2017-08-19T19:42:22.193Z,50.60
2017-08-19T19:44:51.113Z,50.80
2017-08-19T19:47:20.758Z,51.60
2017-08-19T19:49:49.665Z,51.60
2017-08-19T19:54:54.161Z,52.00
2017-08-19T19:57:24.914Z,52.90
2017-08-19T19:59:53.809Z,52.80
2017-08-19T20:02:24.350Z,53.60
2017-08-19T20:04:54.399Z,54.00
2017-08-19T20:07:23.303Z,55.20
2017-08-19T20:09:52.197Z,55.80
2017-08-19T20:12:22.094Z,55.80
2017-08-19T20:14:50.956Z,56.20
2017-08-19T20:17:19.848Z,56.40
2017-08-19T20:19:48.745Z,56.70
2017-08-19T20:22:18.246Z,57.20
2017-08-19T20:25:22.549Z,57.60
2017-08-19T20:27:51.539Z,57.70
2017-08-19T20:30:20.431Z,58.10
2017-08-19T20:32:49.331Z,58.40
2017-08-19T20:35:18.237Z,58.40
2017-08-19T20:37:47.146Z,58.50
2017-08-19T20:40:16.054Z,59.10
2017-08-19T20:42:44.933Z,59.30
2017-08-19T20:45:13.813Z,59.70
2017-08-19T20:47:42.717Z,59.80
2017-08-19T20:50:11.616Z,60.10
2017-08-19T20:52:41.375Z,60.40
2017-08-19T20:55:10.303Z,60.60
2017-08-19T20:57:39.214Z,61.10
2017-08-19T21:00:08.127Z,61.30
2017-08-19T21:02:37.816Z,61.30
2017-08-19T21:05:06.709Z,61.10
2017-08-19T21:07:35.622Z,60.80
2017-08-19T21:10:05.309Z,61.30
2017-08-19T21:12:34.234Z,60.40
2017-08-19T21:15:03.142Z,60.60
2017-08-19T21:17:32.006Z,60.40
2017-08-19T21:20:01.674Z,60.70
2017-08-19T21:22:30.557Z,60.30
2017-08-19T21:24:59.465Z,60.30
2017-08-19T21:27:28.375Z,60.40
2017-08-19T21:29:57.278Z,60.50
2017-08-19T21:32:26.177Z,60.90
2017-08-19T21:34:55.086Z,61.10
2017-08-19T21:37:23.991Z,61.10
2017-08-19T21:39:52.898Z,61.20
2017-08-19T21:42:21.757Z,61.60
2017-08-19T21:44:50.621Z,61.30
2017-08-19T21:47:19.530Z,61.50
2017-08-19T21:49:48.422Z,61.70
2017-08-19T21:52:18.094Z,62.20
2017-08-19T21:54:46.999Z,62.20
2017-08-19T21:57:15.875Z,62.30
2017-08-19T21:59:44.748Z,63.00
2017-08-19T22:02:14.093Z,63.20
2017-08-19T22:04:42.991Z,63.40
2017-08-19T22:07:11.889Z,63.60
2017-08-19T22:09:40.743Z,63.80
2017-08-19T22:12:09.617Z,64.00
2017-08-19T22:14:38.194Z,64.10
2017-08-19T22:17:07.085Z,64.30
2017-08-19T22:19:35.986Z,64.00
2017-08-19T22:22:04.882Z,64.00
2017-08-19T22:24:33.793Z,64.00
2017-08-19T22:27:02.693Z,64.00
2017-08-19T22:29:31.562Z,64.00
2017-08-19T22:32:00.463Z,64.00
2017-08-19T22:34:29.385Z,64.00
2017-08-19T22:36:58.337Z,64.00
2017-08-19T22:39:27.224Z,63.80
2017-08-19T22:41:56.196Z,63.40
2017-08-19T22:44:24.810Z,63.30
2017-08-19T22:46:53.697Z,63.40
2017-08-19T22:49:22.587Z,63.40
2017-08-19T22:51:51.451Z,63.50
2017-08-19T22:54:21.072Z,63.70
2017-08-19T22:56:49.962Z,63.50
2017-08-19T22:59:18.858Z,63.50
2017-08-19T23:01:47.754Z,63.70
2017-08-19T23:04:16.603Z,63.90
2017-08-19T23:06:45.476Z,64.00
2017-08-19T23:09:14.367Z,64.00
2017-08-19T23:11:43.244Z,64.30
2017-08-19T23:14:12.146Z,64.60
2017-08-19T23:16:41.033Z,64.60
2017-08-19T23:19:09.916Z,65.10
2017-08-19T23:21:38.802Z,65.20
2017-08-19T23:24:07.668Z,65.60
2017-08-19T23:26:36.817Z,66.00
2017-08-19T23:29:05.710Z,66.00
2017-08-19T23:31:34.588Z,66.10
2017-08-19T23:34:03.444Z,66.20
2017-08-19T23:36:32.296Z,66.60
2017-08-19T23:39:01.177Z,66.60
2017-08-19T23:41:30.525Z,66.90
2017-08-19T23:43:59.220Z,66.90
2017-08-19T23:46:28.103Z,67.20
2017-08-19T23:48:56.996Z,67.30
2017-08-19T23:51:25.881Z,67.40
2017-08-19T23:53:54.767Z,67.90
2017-08-19T23:56:23.653Z,68.00
2017-08-19T23:58:52.550Z,68.10
